Startpagina
METAR-TAF:

METAR-TAF

Vliegvelden :

Anchorage, Alaska, Verenigde Staten

breedte: 61-13N, lengte: 149-51W, hoogte: 42 m

Actueel weer

Dit bericht is 20 minuten geleden gemaakt, om 16:00 UTC
Wind 4 kt uit het noordnoordwesten
Temperatuur 0°C
Vochtigheid 86%
Druk 995 hPa
Zicht: 2.8 km
Gebroken wolken op 600 ft
Gebroken wolken op 1400 ft
Geheel bewolkt op 2100 ft
lichte sneeuw, nevel

METAR: PAMR 181600Z 34004KT 1 3/4SM -SN BR BKN006 BKN014 OVC021 00/M02 A2937 RMK AO2 CIG 005V011 P0000 T00001017

Tijdstip: 08:20 (16:20 UTC)


TAF: ontbreekt

Waarnemingen en weersverwachtingen van meer dan 4000 vliegvelden (METAR en TAF).

De beschikbare stations zijn de gele en rode punten op de kaart.

Ga met uw muis naar het station om de naam te zien.

Klik dan om waarnemingen en weersverwachtingen te zien.

kaart wijzigen: klik op de groene knoppen met een zwart kruis om in te zoomen, op de groene knop met een streepje om uit te zoomen of op de groene pijlen voor aangrenzende kaarten.


METAR-TAF: